Portada
METAR-TAF:

METAR-TAF

Aeropuertos :

Aeropuerto Internacional Mitiga

Trípoli, Libia

latitud: 32-54N, longitud: 13-17E, altitud: 11 m

Observación

El informe se hizo hace 26 horas y 44 minutos, a las 00:50 UTC
Viento 6 kt del este
Temperatura 20°C
Humedad 83%
Presión 1016 hPa
Visibilidad: 7000 m
Cielo despejado

METAR: HLLM 240050Z 10006KT 7000 SKC 20/17 Q1016

Hora: 05:34 (03:34 UTC)

Pronóstico

El informe se hizo hace 10 horas y 34 minutos, a las 17:00 UTC
Pronóstico válido del 24 a las 18 UTC al 25 a las 18 UTC
Viento 12 kt del este
Visibilidad: 8000 m
Evolucionando progresivamente
del 25 a las 02 UTC al 25 a las 04 UTC
Viento 2 kt con dirección variable
Evolucionando progresivamente
del 25 a las 12 UTC al 25 a las 14 UTC
Viento 12 kt del este-noreste

TAF: HLLM 241700Z 2418/2518 08012KT 8000 NSC BECMG 2502/2504 VRB02KT BECMG 2512/2514 06012KT

Observaciones y pronósticos meteorológicos de más de 4000 aeropuertos (mensajes METAR y TAF).

Los puntos amarillos y rojos representan las estaciones disponibles.

Ponga el ratón en el punto deseado para ver el nombre de la estación.

Haga clic para ver las observaciones y los pronósticos meteorológicos.

Para cambiar el mapa : haga clic en los botones verdes con una cruz de color negro para hacer un zoom, en el botón verde con un guión para alejar o en las flechas verdes para mapas adyacentes.


METAR-TAF: